ADDS METAR Data INFO
IDs: Format: Raw Decoded Include TAF

Data at: 0213 UTC 17 Aug 2018

PAMO 170202Z AUTO 29010KT 9SM FEW035 15/08 A2998 RMK AO2 SLP155 T01500078
PAMO 170102Z AUTO 27009KT 10SM BKN040 16/08 A2998 RMK AO2 SLP156 T01560078
PAMO 170002Z AUTO 26009KT 10SM SCT055 BKN065 15/07 A2999 RMK AO2 SLP158 60000 T01500072 10156 20117 58003
PAMO 162302Z AUTO 25007KT 10SM OVC055 14/09 A2999 RMK AO2 RAB2210E2232 SLP160 P0000 T01390089
PAMO 162228Z AUTO 23005KT 10SM -RA SCT023 OVC047 13/10 A2999 RMK AO2 RAB10 P0000
PAMO 162202Z AUTO 21004KT 10SM BKN021 OVC032 13/09 A2999 RMK AO2 SLP161 T01330089
PAMO 162108Z AUTO 21006KT 10SM BKN019 BKN023 BKN055 13/09 A3000 RMK AO2 SLP163 T01280094 51002
PAMO 162102Z AUTO 20007KT 10SM SCT019 BKN025 13/09 A3000 RMK AO2
PAMO 162002Z AUTO VRB03KT 10SM CLR 12/09 A3000 RMK AO2 SLP162 T01220094
PAMO 161902Z AUTO 24003KT 10SM FEW060 12/09 A3000 RMK AO2 SLP162 T01170089
PAMO 161802Z AUTO 00000KT 10SM CLR 11/09 A3000 RMK AO2 SLP162 T01060094 10106 20083 52001
PAMO 161702Z AUTO 00000KT 10SM BKN060 09/09 A2999 RMK AO2 SLP160 T00940089
PAMO 161631Z AUTO 36003KT 10SM FEW060 09/09 A2999 RMK AO2
PAMO 161623Z AUTO 00000KT 1SM BR CLR 09/09 A2999 RMK AO2
PAMO 161609Z AUTO 35003KT 1/4SM FG CLR 08/08 A2999 RMK AO2
PAMO 161602Z AUTO 34003KT 1 1/4SM BR CLR 09/09 A2999 RMK AO2
PAMO 161502Z AUTO 35003KT 10SM CLR 09/08 A2998 RMK AO2 SLP156 T00940083 56001
PAMO 161402Z AUTO 35003KT 10SM OVC060 09/08 A2998 RMK AO2 SLP157 T00890083
PAMO 161302Z AUTO 34005KT 10SM OVC060 09/08 A2999 RMK AO2 SLP158 T00890078
PAMO 161202Z AUTO 36004KT 10SM OVC060 09/08 A2998 RMK AO2 SLP157 7//// T00940078 10128 20089 51004
PAMO 161102Z AUTO 03007KT 10SM CLR 09/08 A2999 RMK AO2 SLP158 T00940078
PAMO 161002Z AUTO 05006KT 10SM CLR 09/08 A2999 RMK AO2 SLP158 T00940078
PAMO 160902Z AUTO 01007KT 10SM SCT060 10/08 A2998 RMK AO2 SLP156 60003 T01000078 51007
PAMO 160802Z AUTO 01007KT 10SM FEW040 BKN060 11/08 A2997 RMK AO2 SLP154 T01060078 401060106
PAMO 160702Z AUTO 35003KT 10SM OVC060 12/09 A2997 RMK AO2 SLP152 T01170089
PAMO 160602Z AUTO 35005KT 10SM OVC060 13/09 A2996 RMK AO2 RAE0523 SLP149 P0000 60003 T01280094 10150 20122 53002
PAMO 160502Z AUTO 25003KT 10SM -RA OVC032 12/09 A2995 RMK AO2 RAE0403B0419 SLP147 P0003 T01220089
PAMO 160402Z AUTO 31004KT 10SM -RA OVC035 14/08 A2995 RMK AO2 RAB0336 SLP145 P0000 T01390078
PAMO 160302Z AUTO 20007KT 8SM OVC039 14/07 A2994 RMK AO2 SLP144 T01440067 56005
PAMO 160202Z AUTO 20006KT 10SM SCT039 BKN050 14/06 A2995 RMK AO2 SLP144 T01440061
PAMO 160102Z AUTO 20005KT 10SM BKN034 14/06 A2995 RMK AO2 SLP145 T01390061
PAMO 160002Z AUTO 24005KT 10SM BKN032 14/06 A2995 RMK AO2 SLP147 6//// T01390061 10144 20094 50001
PAMO 152302Z AUTO 21005KT 10SM BKN030 OVC043 13/07 A2996 RMK AO2 SLP150 T01330067
PAMO 152228Z AUTO 22005KT 10SM BKN030 BKN034 13/07 A2996 RMK AO2 SLP151 T01330067
PAMO 152202Z AUTO 30003KT 10SM SCT024 BKN030 OVC036 12/07 A2996 RMK AO2
PAMO 152154Z AUTO 26004G18KT 10SM BKN026 OVC036 12/07 A2996 RMK AO2
PAMO 152145Z AUTO 29010G18KT 210V030 10SM SCT026 OVC036 13/07 A2995 RMK AO2
PAMO 152115Z AUTO 19004KT 10SM BKN020 BKN026 12/07 A2996 RMK AO2
PAMO 152102Z AUTO 19004KT 10SM FEW017 12/07 A2996 RMK AO2 SLP149 6//// T01170072 53005
PAMO 152002Z AUTO 01003KT 10SM CLR 10/07 A2996 RMK AO2 SLP149 T01000067
PAMO 151902Z AUTO 00000KT 10SM CLR 10/06 A2995 RMK AO2 SLP146 T01000061
PAMO 151809Z AUTO 00000KT 10SM FEW002 08/07 A2995 RMK AO2
PAMO 151802Z AUTO 00000KT 2SM BR SCT002 08/08 A2995 RMK AO2
PAMO 151759Z AUTO 00000KT 1 1/4SM BR SCT002 08/07 A2995 RMK AO2
PAMO 151751Z AUTO 00000KT 2SM BR SCT002 08/07 A2994 RMK AO2
PAMO 151749Z AUTO 00000KT 1SM BR VV002 08/07 A2994 RMK AO2
PAMO 151741Z AUTO 34003KT 1/2SM FG VV002 07/07 A2994 RMK AO2 VIS 1/4V5
PAMO 151739Z AUTO 34004KT 1SM BR VV001 08/07 A2994 RMK AO2 VIS 1/4V5
PAMO 151737Z AUTO 34003KT 2SM BR FEW002 08/07 A2994 RMK AO2 VIS 1/2V5
PAMO 151702Z AUTO 00000KT 9SM CLR 07/07 A2994 RMK AO2 SLP141 T00720072
PAMO 151653Z AUTO 08003KT 8SM CLR 07/07 A2993 RMK AO2
PAMO 151645Z AUTO 10003KT 2SM BR CLR 07/07 A2993 RMK AO2 VIS 3/4V5
PAMO 151643Z AUTO 10003KT 1SM BR CLR 07/07 A2993 RMK AO2 VIS 1/4V5
PAMO 151627Z AUTO 10003KT 1/2SM FG FEW002 07/07 A2993 RMK AO2
PAMO 151620Z AUTO 11003KT 1SM BR FEW002 SCT055 07/07 A2993 RMK AO2
PAMO 151611Z AUTO 11004KT 1/2SM FG SCT002 BKN055 07/07 A2993 RMK AO2
PAMO 151602Z AUTO 11004KT 1/4SM FG BKN002 OVC055 07/07 A2993 RMK AO2 SLP138 T00670067
PAMO 151534Z AUTO 12004KT 1/4SM FG BKN002 07/07 A2992 RMK AO2
PAMO 151524Z AUTO 12004KT 3/4SM BR BKN002 07/07 A2992 RMK AO2
PAMO 151502Z AUTO 13004KT 1/4SM FG BKN002 07/07 A2992 RMK AO2 SLP135 60001 T00720072 51004
PAMO 151500Z AUTO 13004KT 1/4SM FG BKN002 07/07 A2992 RMK AO2
PAMO 151451Z AUTO 12004KT 1/2SM FG BKN002 07/07 A2992 RMK AO2
PAMO 151449Z AUTO 12004KT 1 1/2SM BR BKN002 07/07 A2992 RMK AO2
PAMO 151418Z AUTO 12004KT 10SM FEW002 07/07 A2992 RMK AO2